createdAt,value
2018-04-22T00:00:22.228Z,14.30
2018-04-22T00:02:49.857Z,14.40
2018-04-22T00:05:18.270Z,14.30
2018-04-22T00:07:45.861Z,14.30
2018-04-22T00:10:13.484Z,14.20
2018-04-22T00:12:41.106Z,14.20
2018-04-22T00:15:08.744Z,14.10
2018-04-22T00:17:36.496Z,14.00
2018-04-22T00:20:04.673Z,13.90
2018-04-22T00:22:32.289Z,13.80
2018-04-22T00:25:01.532Z,13.70
2018-04-22T00:27:29.172Z,13.70
2018-04-22T00:29:56.789Z,13.60
2018-04-22T00:32:25.156Z,13.60
2018-04-22T00:34:52.781Z,13.60
2018-04-22T00:37:20.405Z,13.60
2018-04-22T00:39:48.813Z,13.50
2018-04-22T00:42:16.492Z,13.50
2018-04-22T00:44:44.121Z,13.40
2018-04-22T00:47:12.349Z,13.40
2018-04-22T00:49:39.943Z,13.40
2018-04-22T00:52:08.328Z,13.40
2018-04-22T00:54:36.675Z,13.30
2018-04-22T00:57:04.292Z,13.30
2018-04-22T00:59:31.926Z,13.20
2018-04-22T01:02:00.326Z,13.30
2018-04-22T01:04:27.909Z,13.30
2018-04-22T01:06:55.528Z,13.30
2018-04-22T01:09:23.934Z,13.20
2018-04-22T01:11:51.640Z,13.20
2018-04-22T01:14:19.261Z,13.10
2018-04-22T01:16:46.885Z,13.10
2018-04-22T01:19:15.229Z,13.10
2018-04-22T01:21:42.934Z,13.00
2018-04-22T01:24:11.325Z,13.00
2018-04-22T01:26:38.949Z,13.00
2018-04-22T01:29:06.533Z,12.90
2018-04-22T01:31:34.946Z,12.80
2018-04-22T01:34:02.590Z,12.70
2018-04-22T01:36:30.244Z,12.80
2018-04-22T01:38:58.633Z,12.80
2018-04-22T01:41:26.260Z,12.70
2018-04-22T01:43:53.840Z,12.70
2018-04-22T01:46:22.197Z,12.60
2018-04-22T01:48:49.825Z,12.60
2018-04-22T01:51:17.456Z,12.60
2018-04-22T01:53:45.039Z,12.60
2018-04-22T01:56:12.621Z,12.60
2018-04-22T01:58:40.289Z,12.60
2018-04-22T02:01:07.927Z,12.50
2018-04-22T02:03:35.515Z,12.50
2018-04-22T02:06:03.253Z,12.50
2018-04-22T02:08:30.893Z,12.40
2018-04-22T02:11:04.440Z,12.30
2018-04-22T02:13:32.065Z,12.30
2018-04-22T02:15:59.655Z,12.30
2018-04-22T02:18:27.282Z,12.30
2018-04-22T02:20:54.865Z,12.30
2018-04-22T02:23:22.489Z,12.40
2018-04-22T02:25:50.068Z,12.30
2018-04-22T02:28:17.685Z,12.30
2018-04-22T02:30:46.050Z,12.20
2018-04-22T02:33:13.687Z,12.20
2018-04-22T02:35:42.065Z,12.20
2018-04-22T02:38:09.693Z,12.10
2018-04-22T02:40:37.297Z,12.10
2018-04-22T02:43:04.925Z,12.00
2018-04-22T02:45:32.545Z,12.00
2018-04-22T02:48:00.946Z,12.00
2018-04-22T02:50:28.564Z,12.00
2018-04-22T02:52:56.208Z,12.00
2018-04-22T02:55:23.794Z,12.00
2018-04-22T02:57:52.535Z,11.90
2018-04-22T03:00:20.161Z,11.90
2018-04-22T03:02:47.776Z,11.90
2018-04-22T03:05:15.401Z,11.90
2018-04-22T03:07:43.024Z,11.90
2018-04-22T03:10:11.373Z,11.90
2018-04-22T03:12:38.997Z,11.90
2018-04-22T03:15:06.685Z,12.00
2018-04-22T03:17:34.261Z,12.00
2018-04-22T03:20:01.881Z,12.10
2018-04-22T03:22:29.515Z,11.90
2018-04-22T03:24:57.912Z,11.80
2018-04-22T03:27:25.536Z,11.70
2018-04-22T03:29:53.131Z,11.70
2018-04-22T03:32:20.745Z,11.80
2018-04-22T03:34:48.380Z,11.70
2018-04-22T03:37:16.861Z,11.80
2018-04-22T03:39:44.489Z,11.80
2018-04-22T03:42:12.156Z,11.70
2018-04-22T03:44:39.742Z,11.80
2018-04-22T03:47:07.329Z,11.70
2018-04-22T03:49:34.945Z,11.60
2018-04-22T03:52:02.630Z,11.50
2018-04-22T03:54:30.264Z,11.50
2018-04-22T03:56:57.896Z,11.50
2018-04-22T03:59:25.543Z,11.50
2018-04-22T04:01:53.214Z,11.50
2018-04-22T04:04:20.805Z,11.60
2018-04-22T04:06:48.424Z,11.60
2018-04-22T04:09:16.008Z,11.60
2018-04-22T04:11:44.400Z,11.40
2018-04-22T04:14:12.800Z,11.50
2018-04-22T04:16:40.449Z,11.40
2018-04-22T04:19:31.560Z,11.50
2018-04-22T04:22:11.069Z,11.50
2018-04-22T04:25:05.323Z,11.60
2018-04-22T04:27:48.826Z,11.50
2018-04-22T04:30:16.445Z,11.50
2018-04-22T04:32:44.096Z,11.40
2018-04-22T04:35:11.684Z,11.50
2018-04-22T04:37:40.084Z,11.40
2018-04-22T04:40:07.720Z,11.40
2018-04-22T04:42:36.253Z,11.50
2018-04-22T04:45:03.912Z,11.60
2018-04-22T04:47:31.493Z,11.70
2018-04-22T04:49:59.184Z,11.70
2018-04-22T04:52:27.590Z,11.80
2018-04-22T04:54:55.246Z,11.80
2018-04-22T04:57:22.861Z,11.90
2018-04-22T04:59:50.580Z,11.90
2018-04-22T05:02:18.213Z,12.10
2018-04-22T05:04:47.217Z,12.20
2018-04-22T05:07:15.561Z,12.30
2018-04-22T05:09:43.980Z,12.30
2018-04-22T05:12:11.604Z,12.30
2018-04-22T05:14:39.228Z,12.30
2018-04-22T05:17:06.813Z,12.40
2018-04-22T05:19:34.424Z,12.40
2018-04-22T05:22:02.049Z,12.60
2018-04-22T05:24:29.636Z,12.70
2018-04-22T05:26:57.281Z,12.90
2018-04-22T05:29:24.930Z,13.00
2018-04-22T05:31:52.527Z,13.00
2018-04-22T05:34:20.152Z,13.10
2018-04-22T05:36:47.748Z,13.20
2018-04-22T05:39:15.377Z,13.20
2018-04-22T05:41:42.980Z,13.30
2018-04-22T05:44:10.637Z,13.40
2018-04-22T05:46:38.219Z,13.50
2018-04-22T05:49:05.800Z,13.60
2018-04-22T05:51:33.422Z,13.70
2018-04-22T05:54:01.005Z,13.80
2018-04-22T05:56:28.625Z,13.90
2018-04-22T05:58:56.972Z,14.00
2018-04-22T06:01:24.595Z,14.00
2018-04-22T06:03:52.344Z,14.10
2018-04-22T06:06:19.937Z,14.20
2018-04-22T06:08:47.574Z,14.30
2018-04-22T06:11:15.191Z,14.40
2018-04-22T06:13:43.581Z,14.70
2018-04-22T06:16:11.977Z,14.80
2018-04-22T06:18:39.596Z,14.80
2018-04-22T06:21:07.212Z,14.90
2018-04-22T06:23:34.828Z,15.00
2018-04-22T06:26:03.220Z,15.20
2018-04-22T06:28:31.592Z,15.30
2018-04-22T06:31:00.010Z,15.40
2018-04-22T06:33:28.098Z,15.30
2018-04-22T06:35:55.723Z,15.40
2018-04-22T06:38:23.420Z,15.50
2018-04-22T06:40:51.061Z,15.60
2018-04-22T06:43:18.701Z,15.70
2018-04-22T06:45:47.049Z,16.00
2018-04-22T06:48:16.211Z,16.00
2018-04-22T06:50:43.798Z,16.00
2018-04-22T06:53:11.422Z,16.10
2018-04-22T06:55:39.017Z,16.30
2018-04-22T06:58:06.645Z,16.40
2018-04-22T07:00:34.244Z,16.40
2018-04-22T07:03:03.384Z,16.60
2018-04-22T07:05:31.011Z,16.60
2018-04-22T07:07:58.638Z,16.70
2018-04-22T07:10:26.298Z,16.80
2018-04-22T07:12:53.960Z,17.00
2018-04-22T07:15:21.605Z,17.10
2018-04-22T07:17:49.245Z,17.20
2018-04-22T07:20:17.597Z,17.40
2018-04-22T07:22:45.244Z,17.40
2018-04-22T07:25:12.861Z,17.50
2018-04-22T07:27:40.485Z,17.60
2018-04-22T07:30:08.109Z,17.70
2018-04-22T07:32:35.765Z,17.90
2018-04-22T07:35:03.398Z,18.00
2018-04-22T07:37:31.049Z,18.10
2018-04-22T07:39:59.401Z,18.40
2018-04-22T07:42:27.069Z,18.40
2018-04-22T07:44:54.747Z,18.50
2018-04-22T07:47:23.172Z,18.70
2018-04-22T07:49:50.761Z,18.70
2018-04-22T07:52:18.377Z,18.90
2018-04-22T07:54:46.013Z,19.00
2018-04-22T07:57:14.397Z,19.30
2018-04-22T07:59:42.013Z,19.30
2018-04-22T08:02:14.163Z,19.40
2018-04-22T08:04:41.817Z,19.60
2018-04-22T08:07:09.741Z,19.70
2018-04-22T08:09:38.193Z,19.90
2018-04-22T08:12:05.820Z,19.90
2018-04-22T08:14:33.503Z,20.00
2018-04-22T08:17:01.250Z,20.20
2018-04-22T08:19:28.842Z,20.30
2018-04-22T08:21:56.484Z,20.40
2018-04-22T08:24:24.069Z,20.60
2018-04-22T08:26:51.652Z,20.70
2018-04-22T08:29:20.041Z,20.90
2018-04-22T08:31:48.584Z,20.90
2018-04-22T08:34:16.249Z,21.00
2018-04-22T08:36:43.832Z,21.20
2018-04-22T08:39:12.216Z,21.50
2018-04-22T08:41:40.613Z,21.60
2018-04-22T08:44:08.193Z,21.60
2018-04-22T08:46:35.821Z,21.80
2018-04-22T08:49:04.173Z,22.10
2018-04-22T08:51:31.819Z,22.10
2018-04-22T08:53:59.436Z,22.30
2018-04-22T08:56:27.135Z,22.40
2018-04-22T08:58:54.762Z,22.50
2018-04-22T09:01:22.445Z,22.60
2018-04-22T09:03:50.054Z,22.70
2018-04-22T09:06:18.433Z,22.90
2018-04-22T09:08:46.852Z,23.10
2018-04-22T09:11:14.598Z,23.00
2018-04-22T09:13:42.224Z,23.20
2018-04-22T09:16:09.889Z,23.30
2018-04-22T09:18:38.317Z,23.50
2018-04-22T09:21:05.974Z,23.50
2018-04-22T09:23:33.733Z,23.70
2018-04-22T09:26:01.398Z,23.80
2018-04-22T09:28:29.138Z,24.00
2018-04-22T09:30:57.563Z,24.10
2018-04-22T09:33:25.261Z,24.20
2018-04-22T09:35:53.040Z,24.30
2018-04-22T09:38:21.464Z,24.50
2018-04-22T09:40:49.138Z,24.50
2018-04-22T09:43:16.766Z,24.60
2018-04-22T09:45:44.485Z,24.60
2018-04-22T09:48:12.146Z,24.70
2018-04-22T09:50:39.849Z,24.80
2018-04-22T09:53:07.437Z,24.90
2018-04-22T09:55:35.078Z,25.00
2018-04-22T09:58:02.761Z,25.20
2018-04-22T10:00:32.326Z,25.30
2018-04-22T10:03:06.389Z,25.50
2018-04-22T10:05:48.872Z,25.40
2018-04-22T10:08:16.510Z,25.60
2018-04-22T10:10:44.124Z,25.70
2018-04-22T10:13:11.766Z,25.80
2018-04-22T10:15:40.401Z,25.90
2018-04-22T10:18:08.809Z,26.20
2018-04-22T10:20:36.442Z,26.10
2018-04-22T10:23:04.850Z,26.40
2018-04-22T10:25:32.489Z,26.40
2018-04-22T10:28:00.925Z,26.50
2018-04-22T10:30:28.568Z,26.60
2018-04-22T10:32:56.178Z,26.60
2018-04-22T10:35:23.865Z,26.70
2018-04-22T10:37:52.268Z,26.60
2018-04-22T10:40:19.913Z,26.60
2018-04-22T10:42:47.752Z,26.50
2018-04-22T10:45:16.137Z,26.40
2018-04-22T10:47:44.536Z,26.30
2018-04-22T10:50:12.165Z,26.20
2018-04-22T10:52:39.817Z,26.20
2018-04-22T10:55:07.556Z,26.30
2018-04-22T10:57:35.206Z,26.40
2018-04-22T11:00:02.871Z,26.50
2018-04-22T11:02:30.620Z,26.70
2018-04-22T11:04:58.334Z,26.80
2018-04-22T11:07:26.753Z,27.10
2018-04-22T11:09:54.461Z,27.00
2018-04-22T11:12:22.106Z,27.10
2018-04-22T11:14:49.769Z,27.20
2018-04-22T11:17:17.434Z,27.30
2018-04-22T11:19:45.053Z,27.50
2018-04-22T11:22:12.781Z,27.60
2018-04-22T11:24:40.441Z,27.70
2018-04-22T11:27:08.209Z,27.70
2018-04-22T11:29:35.917Z,27.80
2018-04-22T11:32:03.509Z,27.90
2018-04-22T11:34:31.295Z,28.00
2018-04-22T11:36:59.014Z,28.20
2018-04-22T11:39:26.742Z,28.20
2018-04-22T11:41:55.152Z,28.50
2018-04-22T11:44:22.821Z,28.40
2018-04-22T11:46:50.473Z,28.50
2018-04-22T11:49:18.071Z,28.60
2018-04-22T11:51:46.461Z,28.60
2018-04-22T11:54:14.057Z,28.70
2018-04-22T11:56:41.770Z,28.80
2018-04-22T11:59:09.410Z,28.90
2018-04-22T12:01:37.057Z,29.10
2018-04-22T12:04:04.696Z,29.20
2018-04-22T12:06:33.118Z,29.30
2018-04-22T12:09:00.835Z,29.30
2018-04-22T12:11:29.277Z,29.50
2018-04-22T12:13:56.917Z,29.50
2018-04-22T12:16:24.577Z,29.70
2018-04-22T12:18:52.222Z,29.70
2018-04-22T12:21:19.858Z,29.70
2018-04-22T12:23:48.264Z,29.80
2018-04-22T12:26:15.893Z,29.80
2018-04-22T12:28:44.303Z,29.80
2018-04-22T12:31:11.910Z,29.80
2018-04-22T12:33:39.561Z,29.90
2018-04-22T12:36:07.216Z,29.90
2018-04-22T12:38:34.978Z,30.00
2018-04-22T12:41:02.614Z,29.90
2018-04-22T12:43:30.331Z,29.70
2018-04-22T12:45:57.949Z,29.60
2018-04-22T12:48:25.629Z,29.50
2018-04-22T12:50:53.263Z,29.30
2018-04-22T12:53:21.007Z,29.30
2018-04-22T12:55:49.370Z,29.20
2018-04-22T12:58:17.018Z,29.20
2018-04-22T13:00:44.681Z,29.30
2018-04-22T13:03:12.317Z,29.50
2018-04-22T13:05:39.905Z,29.70
2018-04-22T13:08:07.538Z,29.90
2018-04-22T13:10:35.184Z,30.00
2018-04-22T13:13:02.777Z,30.10
2018-04-22T13:15:30.412Z,30.10
2018-04-22T13:17:58.021Z,30.20
2018-04-22T13:20:26.433Z,30.20
2018-04-22T13:22:54.078Z,30.20
2018-04-22T13:25:22.442Z,30.40
2018-04-22T13:27:50.863Z,30.50
2018-04-22T13:30:18.524Z,30.50
2018-04-22T13:32:46.966Z,30.40
2018-04-22T13:35:15.377Z,30.60
2018-04-22T13:37:43.368Z,30.50
2018-04-22T13:40:11.018Z,30.60
2018-04-22T13:42:38.614Z,30.60
2018-04-22T13:45:06.265Z,30.70
2018-04-22T13:47:33.911Z,30.80
2018-04-22T13:50:01.546Z,31.00
2018-04-22T13:52:29.190Z,31.20
2018-04-22T13:54:57.574Z,31.30
2018-04-22T13:57:25.214Z,31.30
2018-04-22T13:59:53.627Z,31.30
2018-04-22T14:02:21.226Z,31.30
2018-04-22T14:04:48.889Z,31.30
2018-04-22T14:07:16.489Z,31.30
2018-04-22T14:09:44.889Z,31.20
2018-04-22T14:12:12.530Z,31.10
2018-04-22T14:14:40.901Z,31.00
2018-04-22T14:17:09.318Z,30.70
2018-04-22T14:19:36.933Z,30.70
2018-04-22T14:22:04.573Z,30.40
2018-04-22T14:24:32.175Z,30.10
2018-04-22T14:27:00.586Z,29.60
2018-04-22T14:29:28.189Z,29.50
2018-04-22T14:31:55.840Z,29.30
2018-04-22T14:34:23.448Z,29.00
2018-04-22T14:36:51.094Z,28.80
2018-04-22T14:39:19.519Z,28.50
2018-04-22T14:41:47.169Z,28.60
2018-04-22T14:44:26.626Z,28.50
2018-04-22T14:46:54.270Z,28.40
2018-04-22T14:49:21.914Z,28.20
2018-04-22T14:51:49.522Z,28.20
2018-04-22T14:54:17.166Z,28.10
2018-04-22T14:56:44.811Z,28.00
2018-04-22T14:59:12.413Z,28.00
2018-04-22T15:01:40.064Z,27.90
2018-04-22T15:04:07.670Z,27.80
2018-04-22T15:06:35.323Z,27.70
2018-04-22T15:09:03.829Z,27.60
2018-04-22T15:11:31.438Z,27.60
2018-04-22T15:13:59.099Z,27.50
2018-04-22T15:16:26.718Z,27.40
2018-04-22T15:18:54.379Z,27.40
2018-04-22T15:21:22.025Z,27.30
2018-04-22T15:23:49.630Z,27.20
2018-04-22T15:26:17.284Z,27.20
2018-04-22T15:28:44.934Z,27.10
2018-04-22T15:31:13.200Z,27.10
2018-04-22T15:33:40.826Z,27.00
2018-04-22T15:36:09.253Z,26.60
2018-04-22T15:38:36.856Z,26.50
2018-04-22T15:41:04.493Z,26.40
2018-04-22T15:43:32.111Z,26.40
2018-04-22T15:45:59.777Z,26.30
2018-04-22T15:48:27.431Z,26.10
2018-04-22T15:50:55.127Z,26.10
2018-04-22T15:53:22.789Z,25.90
2018-04-22T15:55:50.438Z,25.80
2018-04-22T15:58:18.096Z,25.70
2018-04-22T16:00:45.702Z,25.60
2018-04-22T16:03:14.265Z,25.40
2018-04-22T16:05:41.917Z,25.20
2018-04-22T16:08:09.573Z,25.00
2018-04-22T16:10:37.198Z,24.90
2018-04-22T16:13:05.615Z,24.70
2018-04-22T16:15:33.319Z,24.60
2018-04-22T16:18:01.083Z,24.60
2018-04-22T16:20:29.478Z,24.50
2018-04-22T16:22:57.920Z,24.50
2018-04-22T16:25:25.574Z,24.50
2018-04-22T16:27:53.185Z,24.60
2018-04-22T16:30:20.852Z,24.70
2018-04-22T16:32:48.454Z,24.80
2018-04-22T16:35:16.139Z,24.90
2018-04-22T16:37:43.732Z,25.00
2018-04-22T16:40:11.436Z,25.10
2018-04-22T16:42:39.040Z,25.00
2018-04-22T16:45:07.469Z,24.70
2018-04-22T16:47:35.139Z,24.60
2018-04-22T16:50:02.781Z,24.50
2018-04-22T16:52:30.689Z,24.40
2018-04-22T16:54:58.462Z,24.30
2018-04-22T16:57:26.078Z,24.10
2018-04-22T16:59:53.758Z,24.00
2018-04-22T17:02:21.386Z,24.00
2018-04-22T17:04:49.046Z,24.10
2018-04-22T17:07:17.771Z,24.10
2018-04-22T17:09:45.439Z,24.00
2018-04-22T17:12:13.111Z,24.00
2018-04-22T17:14:40.966Z,23.90
2018-04-22T17:17:08.647Z,23.80
2018-04-22T17:19:37.187Z,23.80
2018-04-22T17:22:04.800Z,23.80
2018-04-22T17:24:33.214Z,23.60
2018-04-22T17:27:00.902Z,23.60
2018-04-22T17:29:28.588Z,23.50
2018-04-22T17:31:56.203Z,23.50
2018-04-22T17:34:23.850Z,23.50
2018-04-22T17:36:51.518Z,23.40
2018-04-22T17:39:19.182Z,23.30
2018-04-22T17:41:47.609Z,23.00
2018-04-22T17:44:15.314Z,23.00
2018-04-22T17:46:43.705Z,22.80
2018-04-22T17:49:11.424Z,22.80
2018-04-22T17:51:40.199Z,22.70
2018-04-22T17:54:07.872Z,22.70
2018-04-22T17:56:35.608Z,22.70
2018-04-22T17:59:03.342Z,22.70
2018-04-22T18:01:31.057Z,22.70
2018-04-22T18:03:59.115Z,22.60
2018-04-22T18:06:26.773Z,22.40
2018-04-22T18:08:54.407Z,22.40
2018-04-22T18:11:22.710Z,22.30
2018-04-22T18:13:50.318Z,22.20
2018-04-22T18:16:18.832Z,21.90
2018-04-22T18:18:46.807Z,21.90
2018-04-22T18:21:14.552Z,21.90
2018-04-22T18:23:42.216Z,21.80
2018-04-22T18:26:09.931Z,21.80
2018-04-22T18:28:37.638Z,21.70
2018-04-22T18:31:05.341Z,21.60
2018-04-22T18:33:33.069Z,21.60
2018-04-22T18:36:01.964Z,21.60
2018-04-22T18:38:30.471Z,21.50
2018-04-22T18:40:59.049Z,21.30
2018-04-22T18:43:26.729Z,21.30
2018-04-22T18:45:55.020Z,21.20
2018-04-22T18:48:23.705Z,21.10
2018-04-22T18:50:51.795Z,21.00
2018-04-22T18:53:19.983Z,20.80
2018-04-22T18:55:50.091Z,20.80
2018-04-22T18:58:22.445Z,20.70
2018-04-22T19:00:50.880Z,20.70
2018-04-22T19:03:18.559Z,20.60
2018-04-22T19:05:46.274Z,20.60
2018-04-22T19:08:14.282Z,20.60
2018-04-22T19:10:42.025Z,20.60
2018-04-22T19:13:10.708Z,20.50
2018-04-22T19:15:39.142Z,20.40
2018-04-22T19:18:07.445Z,20.30
2018-04-22T19:20:35.092Z,20.20
2018-04-22T19:23:03.491Z,20.20
2018-04-22T19:25:31.677Z,20.20
2018-04-22T19:27:59.888Z,20.20
2018-04-22T19:30:27.607Z,20.20
2018-04-22T19:32:55.255Z,20.10
2018-04-22T19:35:24.310Z,20.00
2018-04-22T19:37:53.030Z,20.00
2018-04-22T19:40:20.798Z,19.90
2018-04-22T19:42:48.473Z,20.00
2018-04-22T19:45:16.163Z,20.00
2018-04-22T19:47:43.842Z,19.90
2018-04-22T19:50:11.506Z,19.80
2018-04-22T19:52:39.162Z,19.70
2018-04-22T19:55:06.785Z,19.60
2018-04-22T19:57:34.476Z,19.60
2018-04-22T20:00:02.157Z,19.40
2018-04-22T20:02:29.829Z,19.30
2018-04-22T20:04:57.460Z,19.30
2018-04-22T20:07:26.046Z,19.20
2018-04-22T20:09:53.980Z,19.10
2018-04-22T20:12:22.004Z,19.00
2018-04-22T20:14:50.742Z,18.90
2018-04-22T20:17:19.313Z,18.90
2018-04-22T20:19:47.363Z,18.80
2018-04-22T20:22:15.098Z,18.80
2018-04-22T20:24:42.836Z,18.90
2018-04-22T20:27:14.259Z,18.80
2018-04-22T20:29:42.682Z,18.80
2018-04-22T20:32:10.403Z,18.80
2018-04-22T20:34:38.799Z,18.60
2018-04-22T20:37:06.517Z,18.60
2018-04-22T20:39:34.198Z,18.60
2018-04-22T20:42:02.577Z,18.20
2018-04-22T20:44:31.038Z,18.20
2018-04-22T20:46:58.687Z,18.20
2018-04-22T20:49:26.280Z,18.10
2018-04-22T20:51:53.925Z,18.10
2018-04-22T20:54:21.568Z,18.00
2018-04-22T20:56:49.213Z,17.90
2018-04-22T20:59:16.841Z,17.90
2018-04-22T21:01:45.206Z,17.80
2018-04-22T21:04:13.610Z,17.70
2018-04-22T21:06:41.244Z,17.60
2018-04-22T21:09:09.628Z,17.60
2018-04-22T21:11:40.124Z,17.60
2018-04-22T21:14:07.768Z,17.60
2018-04-22T21:16:35.368Z,17.60
2018-04-22T21:19:02.998Z,17.60
2018-04-22T21:21:30.585Z,17.50
2018-04-22T21:23:58.205Z,17.50
2018-04-22T21:26:25.828Z,17.50
2018-04-22T21:28:54.294Z,17.30
2018-04-22T21:31:21.917Z,17.30
2018-04-22T21:33:49.548Z,17.20
2018-04-22T21:36:17.179Z,17.20
2018-04-22T21:38:45.584Z,17.20
2018-04-22T21:41:13.211Z,17.20
2018-04-22T21:43:40.949Z,17.20
2018-04-22T21:46:08.557Z,17.10
2018-04-22T21:48:36.956Z,16.90
2018-04-22T21:51:04.555Z,16.90
2018-04-22T21:53:32.233Z,16.90
2018-04-22T21:56:00.683Z,17.00
2018-04-22T21:58:28.319Z,16.90
2018-04-22T22:00:57.749Z,16.90
2018-04-22T22:03:25.353Z,16.90
2018-04-22T22:05:53.781Z,16.90
2018-04-22T22:08:21.393Z,16.90
2018-04-22T22:10:49.938Z,16.90
2018-04-22T22:13:18.347Z,16.70
2018-04-22T22:15:46.714Z,16.70
2018-04-22T22:18:14.353Z,16.70
2018-04-22T22:20:41.949Z,16.70
2018-04-22T22:23:09.581Z,16.60
2018-04-22T22:25:37.224Z,16.40
2018-04-22T22:28:04.835Z,16.40
2018-04-22T22:30:33.272Z,16.30
2018-04-22T22:33:00.905Z,16.20
2018-04-22T23:55:46.069Z,16.20
2018-04-22T23:58:13.684Z,15.30
